createdAt,value
2022-07-25T00:01:15.784Z,6.00
2022-07-25T00:03:37.669Z,5.23
2022-07-25T00:06:01.224Z,6.30
2022-07-25T00:08:23.290Z,6.50
2022-07-25T00:10:45.315Z,6.80
2022-07-25T00:13:07.351Z,5.80
2022-07-25T00:15:30.796Z,5.87
2022-07-25T00:17:52.916Z,7.03
2022-07-25T00:20:14.982Z,6.37
2022-07-25T00:22:37.367Z,7.17
2022-07-25T00:24:59.768Z,7.37
2022-07-25T00:27:22.137Z,6.30
2022-07-25T00:29:44.239Z,6.80
2022-07-25T00:32:07.959Z,7.43
2022-07-25T00:34:29.910Z,7.17
2022-07-25T00:36:51.627Z,6.97
2022-07-25T00:39:13.543Z,7.80
2022-07-25T00:41:35.306Z,7.70
2022-07-25T00:43:57.014Z,8.03
2022-07-25T00:46:19.455Z,7.57
2022-07-25T00:48:44.803Z,7.73
2022-07-25T00:51:07.463Z,7.80
2022-07-25T00:53:29.696Z,8.50
2022-07-25T00:55:53.089Z,9.30
2022-07-25T00:58:15.770Z,9.97
2022-07-25T01:00:37.595Z,10.93
2022-07-25T01:02:59.591Z,10.40
2022-07-25T01:05:22.844Z,9.53
2022-07-25T01:07:44.823Z,9.57
2022-07-25T01:10:07.936Z,10.53
2022-07-25T01:12:29.997Z,11.60
2022-07-25T01:14:51.728Z,10.37
2022-07-25T01:17:14.218Z,11.87
2022-07-25T01:19:36.102Z,11.10
2022-07-25T01:21:59.386Z,10.77
2022-07-25T01:24:21.279Z,10.37
2022-07-25T01:26:43.282Z,11.37
2022-07-25T01:29:06.238Z,11.70
2022-07-25T01:31:28.428Z,11.00
2022-07-25T01:33:50.806Z,9.30
2022-07-25T01:36:13.224Z,9.60
2022-07-25T01:38:36.814Z,10.23
2022-07-25T01:40:58.568Z,10.63
2022-07-25T01:43:20.800Z,10.70
2022-07-25T01:45:42.978Z,10.13
2022-07-25T01:48:05.350Z,9.70
2022-07-25T01:50:27.536Z,10.87
2022-07-25T01:52:49.656Z,10.27
2022-07-25T01:55:13.187Z,10.37
2022-07-25T01:57:36.269Z,9.93
2022-07-25T01:59:58.063Z,11.23
2022-07-25T02:02:19.921Z,10.00
2022-07-25T02:04:41.852Z,10.13
2022-07-25T02:07:04.315Z,10.17
2022-07-25T02:09:28.933Z,10.57
2022-07-25T02:11:52.236Z,10.87
2022-07-25T02:14:16.119Z,10.73
2022-07-25T02:16:38.064Z,10.80
2022-07-25T02:18:59.884Z,10.67
2022-07-25T02:21:21.812Z,11.13
2022-07-25T02:23:44.280Z,12.03
2022-07-25T02:26:06.417Z,11.67
2022-07-25T02:28:29.956Z,11.50
2022-07-25T02:30:52.349Z,12.10
2022-07-25T02:33:14.032Z,11.57
2022-07-25T02:35:35.994Z,11.17
2022-07-25T02:37:58.400Z,11.20
2022-07-25T02:40:20.594Z,10.30
2022-07-25T02:42:42.841Z,10.63
2022-07-25T02:45:07.781Z,11.20
2022-07-25T02:47:30.080Z,11.27
2022-07-25T02:49:51.974Z,10.23
2022-07-25T02:52:13.838Z,10.20
2022-07-25T02:54:35.778Z,9.67
2022-07-25T02:56:57.624Z,10.77
2022-07-25T02:59:19.499Z,10.57
2022-07-25T03:01:42.638Z,10.33
2022-07-25T03:04:04.739Z,12.13
2022-07-25T03:06:26.791Z,11.30
2022-07-25T03:08:48.746Z,10.77
2022-07-25T03:11:10.642Z,10.33
2022-07-25T03:13:33.026Z,12.70
2022-07-25T03:15:55.157Z,12.00
2022-07-25T03:18:18.415Z,13.50
2022-07-25T03:20:40.342Z,13.07
2022-07-25T03:23:02.166Z,12.60
2022-07-25T03:25:24.041Z,12.80
2022-07-25T03:27:46.166Z,11.60
2022-07-25T03:30:09.897Z,12.13
2022-07-25T03:32:31.821Z,12.87
2022-07-25T03:34:55.161Z,10.97
2022-07-25T03:37:16.901Z,12.10
2022-07-25T03:39:39.529Z,11.67
2022-07-25T03:42:01.482Z,11.23
2022-07-25T03:44:24.674Z,12.80
2022-07-25T03:46:46.558Z,13.00
2022-07-25T03:49:08.707Z,12.40
2022-07-25T03:51:32.554Z,11.63
2022-07-25T03:54:03.956Z,12.37
2022-07-25T03:56:26.298Z,12.63
2022-07-25T03:58:48.299Z,12.37
2022-07-25T04:01:10.739Z,12.50
2022-07-25T04:03:33.014Z,11.47
2022-07-25T04:05:54.972Z,11.97
2022-07-25T04:08:18.627Z,10.60
2022-07-25T04:10:40.407Z,11.07
2022-07-25T04:13:03.705Z,10.97
2022-07-25T04:15:25.718Z,10.87
2022-07-25T04:17:47.605Z,11.67
2022-07-25T04:20:10.444Z,11.67
2022-07-25T04:22:32.604Z,10.17
2022-07-25T04:24:55.945Z,12.03
2022-07-25T04:27:18.002Z,11.17
2022-07-25T04:29:39.967Z,11.27
2022-07-25T04:32:01.860Z,10.27
2022-07-25T04:34:23.596Z,9.83
2022-07-25T04:36:45.694Z,9.30
2022-07-25T04:39:07.504Z,10.13
2022-07-25T04:41:30.792Z,9.50
2022-07-25T04:43:52.742Z,9.17
2022-07-25T04:46:19.772Z,9.40
2022-07-25T04:48:41.875Z,9.13
2022-07-25T04:51:08.238Z,8.47
2022-07-25T04:53:30.747Z,9.60
2022-07-25T04:55:52.641Z,10.13
2022-07-25T04:58:16.016Z,10.00
2022-07-25T05:00:38.306Z,10.17
2022-07-25T05:03:00.338Z,9.27
2022-07-25T05:05:22.554Z,8.50
2022-07-25T05:07:44.666Z,9.07
2022-07-25T05:10:07.464Z,8.47
2022-07-25T05:12:47.690Z,9.50
2022-07-25T05:15:12.219Z,9.03
2022-07-25T05:17:34.341Z,8.37
2022-07-25T05:19:56.318Z,8.67
2022-07-25T05:22:18.515Z,10.00
2022-07-25T05:24:40.251Z,8.73
2022-07-25T05:27:02.281Z,9.03
2022-07-25T05:29:24.222Z,9.73
2022-07-25T05:31:47.866Z,9.53
2022-07-25T05:34:10.117Z,8.50
2022-07-25T05:36:32.263Z,9.57
2022-07-25T05:38:54.078Z,9.73
2022-07-25T05:41:16.405Z,9.80
2022-07-25T05:43:38.207Z,9.40
2022-07-25T05:46:04.267Z,9.70
2022-07-25T05:48:27.739Z,9.17
2022-07-25T05:50:49.851Z,9.73
2022-07-25T05:53:12.212Z,10.00
2022-07-25T05:55:34.568Z,9.33
2022-07-25T05:57:56.723Z,9.53
2022-07-25T06:00:19.155Z,9.73
2022-07-25T06:02:41.367Z,9.20
2022-07-25T06:05:05.221Z,9.07
2022-07-25T06:07:27.423Z,9.50
2022-07-25T06:09:49.323Z,10.17
2022-07-25T06:12:11.530Z,10.80
2022-07-25T06:14:33.748Z,10.20
2022-07-25T06:16:56.024Z,9.93
2022-07-25T06:19:17.855Z,9.93
2022-07-25T06:21:40.969Z,8.70
2022-07-25T06:24:02.858Z,9.17
2022-07-25T06:26:25.146Z,8.37
2022-07-25T06:28:47.139Z,8.93
2022-07-25T06:31:09.318Z,9.30
2022-07-25T06:33:31.350Z,9.60
2022-07-25T06:35:53.489Z,8.10
2022-07-25T06:38:16.748Z,8.70
2022-07-25T06:40:38.595Z,7.83
2022-07-25T06:43:00.567Z,8.83
2022-07-25T06:45:24.135Z,8.07
2022-07-25T06:47:47.066Z,8.33
2022-07-25T06:50:11.952Z,8.53
2022-07-25T06:52:34.098Z,8.17
2022-07-25T06:54:57.471Z,8.57
2022-07-25T06:57:19.620Z,7.47
2022-07-25T06:59:41.552Z,7.77
2022-07-25T07:02:03.426Z,8.13
2022-07-25T07:04:25.303Z,7.43
2022-07-25T07:06:47.291Z,7.43
2022-07-25T07:09:09.316Z,7.97
2022-07-25T07:11:34.281Z,6.90
2022-07-25T07:13:56.601Z,7.43
2022-07-25T07:16:18.719Z,7.90
2022-07-25T07:18:43.596Z,7.63
2022-07-25T07:21:08.186Z,7.97
2022-07-25T07:23:30.308Z,7.87
2022-07-25T07:25:55.033Z,7.97
2022-07-25T07:28:18.230Z,8.00
2022-07-25T07:31:13.590Z,8.07
2022-07-25T07:33:23.827Z,7.43
2022-07-25T07:35:46.128Z,7.13
2022-07-25T07:38:09.107Z,7.23
2022-07-25T07:40:31.533Z,6.87
2022-07-25T07:42:54.055Z,7.07
2022-07-25T07:45:20.592Z,6.50
2022-07-25T07:47:42.881Z,6.90
2022-07-25T07:50:05.402Z,6.57
2022-07-25T07:52:27.275Z,7.27
2022-07-25T07:55:06.518Z,6.97
2022-07-25T07:57:28.430Z,6.30
2022-07-25T07:59:50.223Z,5.93
2022-07-25T08:02:14.164Z,5.80
2022-07-25T08:04:36.285Z,5.63
2022-07-25T08:06:58.155Z,6.37
2022-07-25T08:09:20.313Z,5.90
2022-07-25T08:11:42.075Z,6.10
2022-07-25T08:14:05.456Z,6.37
2022-07-25T08:16:27.346Z,5.47
2022-07-25T08:18:50.545Z,5.83
2022-07-25T08:21:12.562Z,6.37
2022-07-25T08:23:35.397Z,6.57
2022-07-25T08:25:58.044Z,7.10
2022-07-25T08:28:21.162Z,6.83
2022-07-25T08:30:43.374Z,7.93
2022-07-25T08:33:07.939Z,7.00
2022-07-25T08:35:32.518Z,7.97
2022-07-25T08:37:55.794Z,7.03
2022-07-25T08:40:20.511Z,7.87
2022-07-25T08:42:43.032Z,7.50
2022-07-25T08:45:07.635Z,6.97
2022-07-25T08:47:30.413Z,7.70
2022-07-25T08:49:52.783Z,7.93
2022-07-25T08:52:16.681Z,8.33
2022-07-25T08:54:39.235Z,8.53
2022-07-25T08:57:01.379Z,8.30
2022-07-25T08:59:23.295Z,8.43
2022-07-25T09:01:45.211Z,8.33
2022-07-25T09:04:10.096Z,8.70
2022-07-25T09:06:32.176Z,9.07
2022-07-25T09:09:00.932Z,8.30
2022-07-25T09:11:35.075Z,9.00
2022-07-25T09:14:05.974Z,9.17
2022-07-25T09:16:33.803Z,9.03
2022-07-25T09:19:06.232Z,8.73
2022-07-25T09:21:28.217Z,9.07
2022-07-25T09:23:50.301Z,10.23
2022-07-25T09:26:14.758Z,9.53
2022-07-25T09:28:42.599Z,9.03
2022-07-25T09:31:04.915Z,9.33
2022-07-25T09:33:28.415Z,10.27
2022-07-25T09:35:50.442Z,9.63
2022-07-25T09:38:14.201Z,9.40
2022-07-25T09:40:36.077Z,9.23
2022-07-25T09:42:59.318Z,9.53
2022-07-25T09:45:21.086Z,8.70
2022-07-25T09:47:54.731Z,8.47
2022-07-25T09:50:17.518Z,9.23
2022-07-25T09:52:40.307Z,9.90
2022-07-25T09:55:05.099Z,8.87
2022-07-25T09:57:28.724Z,9.37
2022-07-25T09:59:52.106Z,8.40
2022-07-25T10:02:27.289Z,9.37
2022-07-25T10:04:57.612Z,9.30
2022-07-25T10:07:24.270Z,9.17
2022-07-25T10:09:50.626Z,8.30
2022-07-25T10:12:15.518Z,7.63
2022-07-25T10:14:38.639Z,7.63
2022-07-25T10:17:02.925Z,6.97
2022-07-25T10:19:45.900Z,6.30
2022-07-25T10:22:12.175Z,6.30
2022-07-25T10:24:35.182Z,4.37
2022-07-25T10:26:57.071Z,5.47
2022-07-25T10:29:19.470Z,5.87
2022-07-25T10:31:50.400Z,4.93
2022-07-25T10:34:15.336Z,5.47
2022-07-25T10:36:45.995Z,4.93
2022-07-25T10:39:10.653Z,5.50
2022-07-25T10:41:32.817Z,5.20
2022-07-25T10:44:00.426Z,4.57
2022-07-25T10:46:23.428Z,4.10
2022-07-25T10:48:45.714Z,4.53
2022-07-25T10:51:10.874Z,4.47
2022-07-25T10:53:34.734Z,4.60
2022-07-25T10:56:06.174Z,4.23
2022-07-25T10:58:28.422Z,4.37
2022-07-25T11:00:51.171Z,4.17
2022-07-25T11:03:18.097Z,4.90
2022-07-25T11:05:47.784Z,5.23
2022-07-25T11:08:21.565Z,5.13
2022-07-25T11:10:52.082Z,5.73
2022-07-25T11:13:15.842Z,5.23
2022-07-25T11:15:38.097Z,5.13
2022-07-25T11:18:00.122Z,6.43
2022-07-25T11:20:22.426Z,5.70
2022-07-25T11:22:44.242Z,6.33
2022-07-25T11:25:14.174Z,5.00
2022-07-25T11:27:35.966Z,6.00
2022-07-25T11:30:08.027Z,4.80
2022-07-25T11:32:39.887Z,3.83
2022-07-25T11:35:02.121Z,2.97
2022-07-25T11:37:24.500Z,2.50
2022-07-25T11:39:48.720Z,1.90
2022-07-25T11:42:16.139Z,1.50
2022-07-25T11:44:42.981Z,1.60
2022-07-25T11:47:22.614Z,1.30
2022-07-25T11:49:45.524Z,1.37
2022-07-25T11:52:07.737Z,1.30
2022-07-25T11:54:29.686Z,1.40
2022-07-25T11:56:51.386Z,1.10
2022-07-25T11:59:15.087Z,1.63
2022-07-25T12:01:38.492Z,1.10
2022-07-25T12:04:09.928Z,1.27
2022-07-25T12:06:31.828Z,1.60
2022-07-25T12:08:53.994Z,1.37
2022-07-25T12:11:20.877Z,1.50
2022-07-25T12:13:42.657Z,1.37
2022-07-25T12:16:06.678Z,4.73
2022-07-25T12:18:29.186Z,1.10
2022-07-25T12:20:52.939Z,1.07
2022-07-25T12:23:15.732Z,1.00
2022-07-25T12:25:40.078Z,1.30
2022-07-25T12:28:02.454Z,1.20
2022-07-25T12:30:24.481Z,1.10
2022-07-25T12:32:47.663Z,1.00
2022-07-25T12:35:11.639Z,0.90
2022-07-25T12:37:33.927Z,0.80
2022-07-25T12:39:56.099Z,0.90
2022-07-25T12:42:18.191Z,0.80
2022-07-25T12:44:40.079Z,1.10
2022-07-25T12:47:02.733Z,1.50
2022-07-25T12:49:26.225Z,1.33
2022-07-25T12:51:48.019Z,1.53
2022-07-25T12:54:10.302Z,2.33
2022-07-25T12:56:33.078Z,2.13
2022-07-25T12:58:55.766Z,2.30
2022-07-25T13:01:17.918Z,2.13
2022-07-25T13:03:39.791Z,1.60
2022-07-25T13:06:02.881Z,1.30
2022-07-25T13:08:24.739Z,1.97
2022-07-25T13:10:46.548Z,10.70
2022-07-25T13:13:08.325Z,1.87
2022-07-25T13:15:30.366Z,1.83
2022-07-25T13:17:52.551Z,2.47
2022-07-25T13:20:15.606Z,2.50
2022-07-25T13:22:38.977Z,1.73
2022-07-25T13:25:01.016Z,1.53
2022-07-25T13:27:23.806Z,1.50
2022-07-25T13:29:45.931Z,1.80
2022-07-25T13:32:07.894Z,1.70
2022-07-25T13:34:29.630Z,2.13
2022-07-25T13:36:51.453Z,1.33
2022-07-25T13:39:14.843Z,1.90
2022-07-25T13:41:37.056Z,1.50
2022-07-25T13:43:59.218Z,1.50
2022-07-25T13:46:21.456Z,1.40
2022-07-25T13:48:43.321Z,1.40
2022-07-25T13:51:05.411Z,1.20
2022-07-25T13:53:30.236Z,1.30
2022-07-25T13:55:54.091Z,1.20
2022-07-25T13:58:16.294Z,1.20
2022-07-25T14:00:38.582Z,1.00
2022-07-25T14:03:01.483Z,1.10
2022-07-25T14:05:24.224Z,0.90
2022-07-25T14:07:46.896Z,1.07
2022-07-25T14:10:09.295Z,1.03
2022-07-25T14:12:32.456Z,1.00
2022-07-25T14:14:54.366Z,0.90
2022-07-25T14:17:16.994Z,1.10
2022-07-25T14:19:39.247Z,1.17
2022-07-25T14:22:01.317Z,1.10
2022-07-25T14:24:23.249Z,0.80
2022-07-25T14:26:45.211Z,0.93
2022-07-25T14:29:11.143Z,1.00
2022-07-25T14:31:33.150Z,1.07
2022-07-25T14:33:55.030Z,1.03
2022-07-25T14:36:17.069Z,0.90
2022-07-25T14:38:40.311Z,0.90
2022-07-25T14:41:02.440Z,0.80
2022-07-25T14:43:24.255Z,1.10
2022-07-25T14:45:47.792Z,1.07
2022-07-25T14:48:09.518Z,1.50
2022-07-25T14:50:31.373Z,1.10
2022-07-25T14:52:53.249Z,1.70
2022-07-25T14:55:15.246Z,1.23
2022-07-25T14:57:37.367Z,1.33
2022-07-25T15:00:01.801Z,1.57
2022-07-25T15:02:25.072Z,1.63
2022-07-25T15:04:47.139Z,1.93
2022-07-25T15:07:09.124Z,1.70
2022-07-25T15:09:31.072Z,1.60
2022-07-25T15:11:52.839Z,1.20
2022-07-25T15:14:14.738Z,1.33
2022-07-25T15:16:36.895Z,1.00
2022-07-25T15:19:15.686Z,1.30
2022-07-25T15:21:38.903Z,1.00
2022-07-25T15:24:00.986Z,1.20
2022-07-25T15:26:23.261Z,1.13
2022-07-25T15:28:45.314Z,0.93
2022-07-25T15:31:08.034Z,1.20
2022-07-25T15:33:30.065Z,1.00
2022-07-25T15:35:53.359Z,1.40
2022-07-25T15:38:16.702Z,1.77
2022-07-25T15:40:38.584Z,1.70
2022-07-25T15:43:00.588Z,1.60
2022-07-25T15:45:33.088Z,1.73
2022-07-25T15:47:56.527Z,1.80
2022-07-25T15:50:18.408Z,1.80
2022-07-25T15:52:41.715Z,1.73
2022-07-25T15:55:03.915Z,1.60
2022-07-25T15:57:25.991Z,1.93
2022-07-25T15:59:47.897Z,2.00
2022-07-25T16:02:13.041Z,1.73
2022-07-25T16:04:35.212Z,1.83
2022-07-25T16:06:57.805Z,2.10
2022-07-25T16:09:21.328Z,2.10
2022-07-25T16:11:43.306Z,1.80
2022-07-25T16:14:05.363Z,1.80
2022-07-25T16:16:27.265Z,1.70
2022-07-25T16:18:49.635Z,1.47
2022-07-25T16:21:11.501Z,1.67
2022-07-25T16:23:38.390Z,1.60
2022-07-25T16:26:04.203Z,1.80
2022-07-25T16:28:26.302Z,1.53
2022-07-25T16:30:48.076Z,1.97
2022-07-25T16:33:10.063Z,1.67
2022-07-25T16:35:32.567Z,1.50
2022-07-25T16:37:54.328Z,1.73
2022-07-25T16:40:16.425Z,1.67
2022-07-25T16:42:39.802Z,1.83
2022-07-25T16:45:01.843Z,1.40
2022-07-25T16:47:24.046Z,1.40
2022-07-25T16:49:45.852Z,1.60
2022-07-25T16:52:07.935Z,1.50
2022-07-25T16:54:29.959Z,1.70
2022-07-25T16:56:54.256Z,1.57
2022-07-25T16:59:19.820Z,1.90
2022-07-25T17:01:41.901Z,1.80
2022-07-25T17:04:05.265Z,2.13
2022-07-25T17:06:27.106Z,1.80
2022-07-25T17:08:48.972Z,1.70
2022-07-25T17:11:11.357Z,1.93
2022-07-25T17:13:33.188Z,1.67
2022-07-25T17:15:56.549Z,1.60
2022-07-25T17:18:18.698Z,1.60
2022-07-25T17:20:40.618Z,1.57
2022-07-25T17:23:02.506Z,1.50
2022-07-25T17:25:24.381Z,1.33
2022-07-25T17:27:46.261Z,1.53
2022-07-25T17:30:08.953Z,1.53
2022-07-25T17:32:32.129Z,1.67
2022-07-25T17:34:54.275Z,1.57
2022-07-25T17:37:16.205Z,1.50
2022-07-25T17:39:38.644Z,1.70
2022-07-25T17:42:01.042Z,1.77
2022-07-25T17:44:22.806Z,1.20
2022-07-25T17:46:45.024Z,1.50
2022-07-25T17:49:08.678Z,1.50
2022-07-25T17:51:30.525Z,1.40
2022-07-25T17:53:52.637Z,15.50
2022-07-25T17:56:14.566Z,1.30
2022-07-25T17:58:37.198Z,1.10
2022-07-25T18:01:01.411Z,1.10
2022-07-25T18:03:25.450Z,1.10
2022-07-25T18:05:48.621Z,1.40
2022-07-25T18:08:10.986Z,1.30
2022-07-25T18:10:33.223Z,1.40
2022-07-25T18:12:55.682Z,1.30
2022-07-25T18:15:18.086Z,1.23
2022-07-25T18:17:41.822Z,1.50
2022-07-25T18:20:04.556Z,1.80
2022-07-25T18:22:27.718Z,1.20
2022-07-25T18:24:49.506Z,1.53
2022-07-25T18:27:11.359Z,1.57
2022-07-25T18:29:37.067Z,1.40
2022-07-25T18:31:59.470Z,1.20
2022-07-25T18:34:21.561Z,1.50
2022-07-25T18:36:43.862Z,1.20
2022-07-25T18:39:07.317Z,1.20
2022-07-25T18:41:30.237Z,1.10
2022-07-25T18:43:53.843Z,1.63
2022-07-25T18:46:16.742Z,1.80
2022-07-25T18:48:38.718Z,1.43
2022-07-25T18:51:00.622Z,1.40
2022-07-25T18:53:22.712Z,1.37
2022-07-25T18:55:45.973Z,1.83
2022-07-25T18:58:08.927Z,1.30
2022-07-25T19:00:30.741Z,1.47
2022-07-25T19:02:54.658Z,1.73
2022-07-25T19:05:19.891Z,1.70
2022-07-25T19:07:42.327Z,1.67
2022-07-25T19:10:04.911Z,1.23
2022-07-25T19:12:28.460Z,1.30
2022-07-25T19:14:50.316Z,1.63
2022-07-25T19:17:12.243Z,1.33
2022-07-25T19:19:34.924Z,1.60
2022-07-25T19:21:57.286Z,1.50
2022-07-25T19:24:19.634Z,1.50
2022-07-25T19:26:41.759Z,1.43
2022-07-25T19:29:06.526Z,1.57
2022-07-25T19:31:28.429Z,1.30
2022-07-25T19:33:50.537Z,1.53
2022-07-25T19:36:12.811Z,1.43
2022-07-25T19:38:35.522Z,1.20
2022-07-25T19:40:57.770Z,1.60
2022-07-25T19:43:19.757Z,1.27
2022-07-25T19:45:43.119Z,1.70
2022-07-25T19:48:05.796Z,1.20
2022-07-25T19:50:28.120Z,1.40
2022-07-25T19:52:50.120Z,1.40
2022-07-25T19:55:12.041Z,1.53
2022-07-25T19:57:34.015Z,1.40
2022-07-25T19:59:55.932Z,1.50
2022-07-25T20:02:19.207Z,1.60
2022-07-25T20:04:41.384Z,1.33
2022-07-25T20:07:03.662Z,1.60
2022-07-25T20:09:25.528Z,1.70
2022-07-25T20:11:47.541Z,1.23
2022-07-25T20:14:10.855Z,1.80
2022-07-25T20:16:33.420Z,1.50
2022-07-25T20:18:56.463Z,1.50
2022-07-25T20:21:18.807Z,1.30
2022-07-25T20:23:40.911Z,1.77
2022-07-25T20:26:04.167Z,1.70
2022-07-25T20:28:26.444Z,1.50
2022-07-25T20:30:48.432Z,1.80
2022-07-25T20:33:10.824Z,1.60
2022-07-25T20:35:34.483Z,1.70
2022-07-25T20:37:56.342Z,1.30
2022-07-25T20:40:19.396Z,1.57
2022-07-25T20:42:42.962Z,1.73
2022-07-25T20:45:05.988Z,1.43
2022-07-25T20:47:28.081Z,1.80
2022-07-25T20:49:50.075Z,1.47
2022-07-25T20:52:13.305Z,1.43
2022-07-25T20:54:35.280Z,1.97
2022-07-25T20:56:57.386Z,1.70
2022-07-25T20:59:19.366Z,1.47
2022-07-25T21:01:41.720Z,1.70
2022-07-25T21:04:07.425Z,1.53
2022-07-25T21:06:29.672Z,1.97
2022-07-25T21:08:56.838Z,1.37
2022-07-25T21:11:18.788Z,1.70
2022-07-25T21:13:40.959Z,1.30
2022-07-25T21:16:03.395Z,1.60
2022-07-25T21:18:25.247Z,1.60
2022-07-25T21:20:47.362Z,1.60
2022-07-25T21:23:11.562Z,1.67
2022-07-25T21:25:34.823Z,1.80
2022-07-25T21:27:56.873Z,1.67
2022-07-25T21:30:18.958Z,1.80
2022-07-25T21:32:41.917Z,1.60
2022-07-25T21:35:05.446Z,1.70
2022-07-25T21:37:27.505Z,1.60
2022-07-25T21:39:49.287Z,1.47
2022-07-25T21:42:12.355Z,2.20
2022-07-25T21:44:34.215Z,1.60
2022-07-25T21:46:55.954Z,1.60
2022-07-25T21:49:41.868Z,2.37
2022-07-25T21:52:05.534Z,1.87
2022-07-25T21:54:28.168Z,2.37
2022-07-25T21:56:49.995Z,1.93
2022-07-25T21:59:13.269Z,2.47
2022-07-25T22:01:35.625Z,2.57
2022-07-25T22:03:57.789Z,2.13
2022-07-25T22:06:20.492Z,1.90
2022-07-25T22:08:42.390Z,2.20
2022-07-25T22:11:20.683Z,2.10
2022-07-25T22:13:46.400Z,2.23
2022-07-25T22:16:10.171Z,2.10
2022-07-25T22:18:32.315Z,2.20
2022-07-25T22:20:54.822Z,2.40
2022-07-25T22:23:16.813Z,2.23
2022-07-25T22:25:38.658Z,2.33
2022-07-25T22:28:00.492Z,2.03
2022-07-25T22:30:22.344Z,2.30
2022-07-25T22:32:45.511Z,2.47
2022-07-25T22:35:08.616Z,2.07
2022-07-25T22:37:32.783Z,2.20
2022-07-25T22:40:00.605Z,3.07
2022-07-25T22:42:23.380Z,2.57
2022-07-25T22:44:45.272Z,2.30
2022-07-25T22:47:07.384Z,2.27
2022-07-25T22:49:30.659Z,2.27
2022-07-25T22:51:55.616Z,2.93
2022-07-25T22:54:17.793Z,2.93
2022-07-25T22:56:39.941Z,2.30
2022-07-25T22:59:02.002Z,2.43
2022-07-25T23:01:24.420Z,2.87
2022-07-25T23:03:46.484Z,2.83
2022-07-25T23:06:10.266Z,2.70
2022-07-25T23:08:32.362Z,2.93
2022-07-25T23:10:54.256Z,2.47
2022-07-25T23:13:16.173Z,2.30
2022-07-25T23:15:49.386Z,2.37
2022-07-25T23:18:12.524Z,2.33
2022-07-25T23:20:34.431Z,3.50
2022-07-25T23:22:57.670Z,2.23
2022-07-25T23:25:19.477Z,2.83
2022-07-25T23:27:41.298Z,2.70
2022-07-25T23:30:04.284Z,2.63
2022-07-25T23:32:26.349Z,3.00
2022-07-25T23:34:48.443Z,2.43
2022-07-25T23:37:10.662Z,3.03
2022-07-25T23:39:34.018Z,2.70
2022-07-25T23:41:56.319Z,2.43
2022-07-25T23:44:18.547Z,3.07
2022-07-25T23:46:41.231Z,2.87
2022-07-25T23:49:03.040Z,2.83
2022-07-25T23:51:24.914Z,2.50
2022-07-25T23:53:47.227Z,2.50
2022-07-25T23:56:11.029Z,2.77
2022-07-25T23:58:33.203Z,2.83
